Time;durP1;ratioP1;P1;durP2;ratioP2;P2;SDS_P1;SDS_P2;PMS_P1;PMS_P2;Temp;Humidity;BMP_temperature;BMP_pressure;BME280_temperature;BME280_humidity;BME280_pressure;Samples;Min_cycle;Max_cycle;Signal;HPM_P1;HPM_P2
2023/05/16 00:00:39;;;;;;;;;1.00;1.00;;;;;10.47;100.00;97848.00;4818417;28;102030;-75
2023/05/16 00:03:06;;;;;;;;;1.00;1.00;;;;;10.48;100.00;97852.34;4817969;29;101889;-74
2023/05/16 00:05:41;;;;;;;;;0.50;0.50;;;;;10.47;100.00;97855.28;4818399;28;102308;-74
2023/05/16 00:08:37;;;;;;;;;1.75;1.75;;;;;10.46;100.00;97851.72;4813114;29;107659;-74
2023/05/16 00:11:22;;;;;;;;;1.50;1.25;;;;;10.47;100.00;97844.47;4819187;29;102238;-74
2023/05/16 00:13:57;;;;;;;;;2.50;2.50;;;;;10.45;100.00;97844.66;4815142;28;101957;-73
2023/05/16 00:16:30;;;;;;;;;1.00;1.00;;;;;10.42;100.00;97846.97;4820864;28;102593;-73
2023/05/16 00:18:59;;;;;;;;;2.50;2.25;;;;;10.38;100.00;97843.91;4818840;28;104152;-74
2023/05/16 00:21:27;;;;;;;;;3.00;3.00;;;;;10.38;100.00;97846.59;4821234;29;102109;-74
2023/05/16 00:23:54;;;;;;;;;3.75;3.75;;;;;10.39;100.00;97845.56;4818794;28;102086;-74
2023/05/16 00:26:21;;;;;;;;;1.00;0.50;;;;;10.37;100.00;97850.34;4821126;29;102456;-74
2023/05/16 00:28:48;;;;;;;;;2.00;1.25;;;;;10.35;100.00;97848.91;4818457;29;104644;-73
2023/05/16 00:31:15;;;;;;;;;2.25;2.00;;;;;10.32;100.00;97863.66;4818352;28;102256;-73
2023/05/16 00:33:42;;;;;;;;;2.25;2.00;;;;;10.29;100.00;97856.00;4819560;28;101973;-74
2023/05/16 00:36:10;;;;;;;;;2.25;2.00;;;;;10.27;100.00;97855.38;4816533;28;102032;-74
2023/05/16 00:38:37;;;;;;;;;2.00;2.00;;;;;10.24;100.00;97861.22;4818527;28;104189;-74
2023/05/16 00:41:04;;;;;;;;;2.00;2.00;;;;;10.19;100.00;97852.94;4817260;28;101942;-74
2023/05/16 00:43:31;;;;;;;;;2.00;2.00;;;;;10.15;100.00;97847.16;4819956;28;103785;-74
2023/05/16 00:45:59;;;;;;;;;3.00;2.00;;;;;10.12;100.00;97858.38;4821976;28;103022;-74
2023/05/16 00:48:26;;;;;;;;;1.00;1.00;;;;;10.10;100.00;97856.91;4817052;28;104329;-74
2023/05/16 00:50:53;;;;;;;;;1.75;1.75;;;;;10.07;100.00;97860.06;4821252;28;102311;-74
2023/05/16 00:53:20;;;;;;;;;1.00;1.00;;;;;10.05;100.00;97859.44;4820629;28;102462;-73
2023/05/16 00:55:47;;;;;;;;;1.00;1.00;;;;;10.03;100.00;97858.84;4822418;28;102098;-74
2023/05/16 00:58:15;;;;;;;;;2.00;2.00;;;;;10.01;100.00;97861.75;4823620;28;104027;-74
2023/05/16 01:00:44;;;;;;;;;1.00;0.50;;;;;9.96;100.00;97858.03;4820348;28;103378;-74
2023/05/16 01:03:14;;;;;;;;;1.75;1.75;;;;;9.92;100.00;97859.50;4812087;28;102438;-74
2023/05/16 01:05:52;;;;;;;;;1.00;1.00;;;;;9.89;100.00;97857.25;4819116;28;102462;-74
2023/05/16 01:08:39;;;;;;;;;0.00;0.00;;;;;9.86;100.00;97858.50;4816956;28;108401;-74
2023/05/16 01:11:33;;;;;;;;;1.00;1.00;;;;;9.78;100.00;97847.94;4812259;28;102493;-74
2023/05/16 01:14:26;;;;;;;;;2.75;1.25;;;;;9.72;100.00;97855.03;4819822;28;102344;-74
2023/05/16 01:17:39;;;;;;;;;1.00;1.00;;;;;9.71;100.00;97857.94;4818252;28;102316;-74
2023/05/16 01:20:30;;;;;;;;;2.00;2.00;;;;;9.71;100.00;97861.47;4816169;28;107755;-74
2023/05/16 01:23:16;;;;;;;;;1.50;1.00;;;;;9.65;100.00;97851.50;4805098;29;102983;-74
2023/05/16 01:26:15;;;;;;;;;1.00;0.50;;;;;9.70;100.00;97859.81;4822819;28;102113;-74
2023/05/16 01:28:45;;;;;;;;;2.50;1.75;;;;;9.69;100.00;97852.75;4777144;28;102365;-74
2023/05/16 01:31:12;;;;;;;;;1.00;1.00;;;;;9.72;100.00;97846.94;4820221;29;108665;-74
2023/05/16 01:33:40;;;;;;;;;3.00;2.00;;;;;9.71;100.00;97850.66;4815580;28;102052;-74
2023/05/16 01:36:20;;;;;;;;;1.00;1.00;;;;;9.73;100.00;97853.13;4818213;28;102153;-74
2023/05/16 01:39:02;;;;;;;;;0.00;0.00;;;;;9.72;100.00;97851.50;4814844;28;102139;-72
2023/05/16 01:41:54;;;;;;;;;0.00;0.00;;;;;9.60;100.00;97824.34;4815979;28;103997;-74
2023/05/16 01:44:23;;;;;;;;;1.50;1.50;;;;;9.72;100.00;97857.72;4813008;28;102343;-74
2023/05/16 01:46:57;;;;;;;;;0.50;0.50;;;;;9.75;100.00;97851.06;4820412;28;102108;-74
2023/05/16 01:49:47;;;;;;;;;0.00;0.00;;;;;9.73;100.00;97839.63;4824723;28;102180;-74
2023/05/16 01:52:21;;;;;;;;;1.00;1.00;;;;;9.72;100.00;97852.34;4821578;28;108806;-74
2023/05/16 01:54:53;;;;;;;;;1.00;1.00;;;;;9.71;100.00;97855.25;4821231;28;102266;-74
2023/05/16 01:57:25;;;;;;;;;1.00;1.00;;;;;9.66;100.00;97842.38;4802452;28;102238;-74
2023/05/16 01:59:52;;;;;;;;;1.00;1.00;;;;;9.54;100.00;97824.38;4823015;28;102565;-74
2023/05/16 02:02:19;;;;;;;;;2.00;2.00;;;;;9.63;100.00;97848.22;4823228;28;104019;-74
2023/05/16 02:04:46;;;;;;;;;2.50;2.00;;;;;9.61;100.00;97844.88;4823120;28;101992;-73
2023/05/16 02:07:13;;;;;;;;;1.00;1.00;;;;;9.58;100.00;97848.03;4825760;29;102215;-74
2023/05/16 02:09:40;;;;;;;;;2.00;2.00;;;;;9.57;100.00;97853.63;4824340;28;102327;-74
2023/05/16 02:12:07;;;;;;;;;2.75;2.00;;;;;9.56;100.00;97854.66;4804013;29;104205;-74
2023/05/16 02:14:34;;;;;;;;;2.00;1.25;;;;;9.54;100.00;97859.47;4817217;28;102163;-74
2023/05/16 02:17:01;;;;;;;;;1.00;1.00;;;;;9.47;100.00;97837.88;4821014;29;102582;-74
2023/05/16 02:19:28;;;;;;;;;1.00;1.00;;;;;9.51;100.00;97855.28;4822777;28;102778;-74
2023/05/16 02:21:56;;;;;;;;;2.25;1.50;;;;;9.49;100.00;97856.56;4819987;28;104387;-74
2023/05/16 02:24:23;;;;;;;;;1.00;1.00;;;;;9.46;100.00;97854.28;4821677;29;102136;-74
2023/05/16 02:26:50;;;;;;;;;2.00;2.00;;;;;9.45;100.00;97861.56;4820715;28;102765;-75
2023/05/16 02:29:17;;;;;;;;;1.25;1.00;;;;;9.45;100.00;97853.47;4819354;29;102795;-73
2023/05/16 02:31:45;;;;;;;;;1.00;1.00;;;;;9.47;100.00;97848.66;4823600;29;103940;-74
2023/05/16 02:34:12;;;;;;;;;0.50;0.50;;;;;9.48;100.00;97855.72;4819289;29;102208;-74
2023/05/16 02:36:39;;;;;;;;;1.00;1.00;;;;;9.52;100.00;97856.97;4817938;28;102111;-74
2023/05/16 02:39:08;;;;;;;;;0.50;0.50;;;;;9.52;100.00;97859.66;4822567;28;102376;-74
2023/05/16 02:41:35;;;;;;;;;0.00;0.00;;;;;9.54;100.00;97873.78;4819182;29;103789;-74
2023/05/16 02:44:01;;;;;;;;;0.25;0.25;;;;;9.54;100.00;97875.66;4817698;29;102767;-74
2023/05/16 02:46:33;;;;;;;;;1.75;1.75;;;;;9.53;100.00;97877.53;4820517;28;102203;-74
2023/05/16 02:49:02;;;;;;;;;0.25;0.25;;;;;9.51;100.00;97868.78;4820555;28;103411;-74
2023/05/16 02:51:29;;;;;;;;;1.00;0.00;;;;;9.59;100.00;97875.84;4817611;28;104258;-74
2023/05/16 02:53:58;;;;;;;;;1.00;1.00;;;;;9.62;100.00;97870.84;4817821;29;102484;-74
2023/05/16 02:56:26;;;;;;;;;1.00;1.00;;;;;9.63;100.00;97868.97;4821352;28;102020;-74
2023/05/16 02:58:54;;;;;;;;;1.00;1.00;;;;;9.64;100.00;97866.03;4819977;28;102208;-74
2023/05/16 03:01:21;;;;;;;;;1.25;1.00;;;;;9.60;100.00;97867.50;4815078;28;104021;-74
2023/05/16 03:03:48;;;;;;;;;1.75;1.00;;;;;9.63;100.00;97875.22;4817868;29;102297;-73
2023/05/16 03:06:15;;;;;;;;;1.00;1.00;;;;;9.55;100.00;97859.22;4819766;29;103210;-73
2023/05/16 03:08:42;;;;;;;;;1.00;1.00;;;;;9.60;100.00;97870.22;4821040;28;102233;-75
2023/05/16 03:11:09;;;;;;;;;1.00;0.00;;;;;9.61;100.00;97871.88;4820818;29;104039;-75
2023/05/16 03:13:36;;;;;;;;;0.50;0.50;;;;;9.56;100.00;97871.69;4818551;29;103672;-75
2023/05/16 03:16:05;;;;;;;;;0.75;0.00;;;;;9.54;100.00;97878.34;4819299;29;102213;-74
2023/05/16 03:18:32;;;;;;;;;1.50;1.50;;;;;9.47;100.00;97870.25;4821445;28;103139;-74
2023/05/16 03:21:00;;;;;;;;;2.50;1.00;;;;;9.47;100.00;97875.66;4816520;28;104091;-74
2023/05/16 03:23:27;;;;;;;;;2.75;2.75;;;;;9.42;100.00;97875.47;4818765;28;102156;-75
2023/05/16 03:25:55;;;;;;;;;2.25;1.75;;;;;9.43;100.00;97869.03;4820851;29;102379;-74
2023/05/16 03:28:21;;;;;;;;;3.50;3.50;;;;;9.41;100.00;97882.72;4819401;28;103546;-75
2023/05/16 03:30:48;;;;;;;;;8.75;5.50;;;;;9.31;100.00;97871.56;4815139;28;104182;-74
2023/05/16 03:33:15;;;;;;;;;4.25;4.25;;;;;9.35;100.00;97871.97;4819614;29;102130;-75
2023/05/16 03:35:42;;;;;;;;;4.00;4.00;;;;;9.42;100.00;97883.56;4822125;29;102338;-75
2023/05/16 03:38:10;;;;;;;;;5.00;4.75;;;;;9.43;100.00;97887.09;4808422;29;102111;-75
2023/05/16 03:40:37;;;;;;;;;3.75;3.00;;;;;9.45;100.00;97885.84;4797156;29;104186;-75
2023/05/16 03:43:04;;;;;;;;;4.25;3.50;;;;;9.51;100.00;97893.06;4735231;28;102585;-75
2023/05/16 03:45:31;;;;;;;;;4.50;4.00;;;;;9.55;100.00;97893.47;4781487;28;102884;-75
2023/05/16 03:47:58;;;;;;;;;4.00;3.00;;;;;9.57;100.00;97892.25;4819452;29;104066;-75
2023/05/16 03:50:25;;;;;;;;;2.75;2.75;;;;;9.57;100.00;97891.41;4820020;28;104380;-74
2023/05/16 03:52:53;;;;;;;;;7.50;5.00;;;;;9.46;100.00;97884.78;4819257;29;102734;-74
2023/05/16 03:55:20;;;;;;;;;4.25;3.50;;;;;9.47;100.00;97891.84;4816596;29;102460;-75
2023/05/16 03:57:48;;;;;;;;;5.00;4.00;;;;;9.47;100.00;97891.00;4821528;28;102134;-75
2023/05/16 04:00:16;;;;;;;;;2.75;1.00;;;;;9.52;100.00;97900.13;4819751;29;104127;-75
2023/05/16 04:02:43;;;;;;;;;4.00;4.00;;;;;9.51;100.00;97908.44;4825041;28;102337;-75
2023/05/16 04:05:11;;;;;;;;;6.50;6.00;;;;;9.40;100.00;97907.22;4755436;29;102133;-75
2023/05/16 04:07:39;;;;;;;;;6.00;5.50;;;;;9.39;100.00;97905.56;4775869;28;102515;-75
2023/05/16 04:10:07;;;;;;;;;6.00;6.00;;;;;9.41;100.00;97898.91;4815840;29;104016;-75
2023/05/16 04:12:35;;;;;;;;;6.75;5.50;;;;;9.47;100.00;97901.81;4684124;29;102046;-75
2023/05/16 04:15:03;;;;;;;;;6.25;5.25;;;;;9.53;100.00;97899.09;4822809;28;103446;-73
2023/05/16 04:17:30;;;;;;;;;4.00;4.00;;;;;9.56;100.00;97901.38;4774511;29;104052;-73
2023/05/16 04:19:57;;;;;;;;;5.50;4.50;;;;;9.70;100.00;97908.41;4774843;29;104094;-75
2023/05/16 04:22:24;;;;;;;;;4.50;4.00;;;;;9.75;100.00;97916.69;4804845;29;102375;-76
2023/05/16 04:24:51;;;;;;;;;4.00;4.00;;;;;9.87;100.00;97916.84;4818741;28;102386;-75
2023/05/16 04:27:18;;;;;;;;;3.00;3.00;;;;;9.94;100.00;97916.84;4820784;29;102510;-75
2023/05/16 04:29:45;;;;;;;;;2.00;2.00;;;;;10.08;100.00;97923.84;4812563;29;104090;-75
2023/05/16 04:32:12;;;;;;;;;4.25;4.25;;;;;10.25;100.00;97930.44;4785317;29;102182;-75
2023/05/16 04:34:39;;;;;;;;;4.00;3.00;;;;;10.47;100.00;97931.78;4818657;29;104217;-75
2023/05/16 04:37:08;;;;;;;;;4.00;4.00;;;;;10.77;100.00;97939.28;4811726;28;108068;-73
2023/05/16 04:39:36;;;;;;;;;8.00;5.75;;;;;11.39;100.00;97936.47;4683238;29;104118;-73
2023/05/16 04:42:04;;;;;;;;;9.50;6.00;;;;;12.20;93.49;97936.28;4783384;29;102883;-73
2023/05/16 04:44:31;;;;;;;;;7.00;6.25;;;;;13.05;88.72;97931.53;4826996;29;101881;-73
2023/05/16 04:46:58;;;;;;;;;13.00;12.75;;;;;13.98;83.96;97937.00;4800118;28;102118;-73
2023/05/16 04:49:25;;;;;;;;;15.75;12.25;;;;;14.67;83.11;97943.34;4824052;29;103999;-73
2023/05/16 04:51:52;;;;;;;;;13.00;11.75;;;;;15.31;78.54;97949.38;4796231;29;102016;-74
2023/05/16 04:54:19;;;;;;;;;14.00;12.50;;;;;15.65;76.24;97953.78;4678849;29;103552;-74
2023/05/16 04:56:46;;;;;;;;;9.50;9.00;;;;;16.01;72.35;97955.13;4822000;28;102344;-74
2023/05/16 04:59:14;;;;;;;;;6.75;6.75;;;;;16.30;71.84;97947.59;4813229;29;104224;-74
2023/05/16 05:01:40;;;;;;;;;12.75;10.25;;;;;16.77;72.70;97951.47;4823775;28;101860;-74
2023/05/16 05:04:07;;;;;;;;;12.75;12.75;;;;;17.25;71.17;97952.47;4806915;29;101923;-74
2023/05/16 05:06:34;;;;;;;;;13.00;13.00;;;;;17.53;68.52;97946.69;4717716;28;102318;-74
2023/05/16 05:09:01;;;;;;;;;10.00;10.00;;;;;17.61;65.77;97951.72;4827572;29;103624;-74
2023/05/16 05:11:28;;;;;;;;;12.00;9.33;;;;;17.58;66.23;97963.19;4682959;29;102368;-74
2023/05/16 05:13:55;;;;;;;;;9.50;9.50;;;;;17.86;64.57;97963.94;4684325;29;102869;-74
2023/05/16 05:16:22;;;;;;;;;7.00;6.00;;;;;17.91;64.34;97967.53;4764471;29;104242;-74
2023/05/16 05:18:49;;;;;;;;;6.00;6.00;;;;;17.93;63.17;97961.78;4669789;29;104077;-74
2023/05/16 05:21:19;;;;;;;;;6.67;6.67;;;;;17.92;65.20;97965.63;4822763;29;102298;-74
2023/05/16 05:23:48;;;;;;;;;7.67;7.00;;;;;17.89;63.80;97966.13;4820507;29;102273;-74
2023/05/16 05:26:15;;;;;;;;;6.00;5.00;;;;;17.77;63.29;97960.88;4792771;29;104055;-75
2023/05/16 05:28:42;;;;;;;;;4.67;4.67;;;;;17.69;64.92;97953.97;4680509;29;104054;-74
2023/05/16 05:31:19;;;;;;;;;5.67;3.33;;;;;17.71;63.86;97950.97;4690845;29;101938;-74
2023/05/16 05:33:47;;;;;;;;;6.00;5.00;;;;;17.83;63.87;97957.88;4828681;28;102028;-74
2023/05/16 05:36:15;;;;;;;;;5.67;5.00;;;;;17.65;66.02;97950.09;4828850;29;102025;-74
2023/05/16 05:38:42;;;;;;;;;4.00;3.67;;;;;18.03;63.43;97949.00;4792295;29;104048;-75
2023/05/16 05:41:10;;;;;;;;;7.33;6.00;;;;;18.22;63.30;97947.47;4707159;29;102305;-74
2023/05/16 05:43:37;;;;;;;;;5.00;4.33;;;;;18.04;61.41;97944.34;4687932;29;102726;-74
2023/05/16 05:46:05;;;;;;;;;9.33;6.67;;;;;18.17;63.45;97963.03;4685736;28;102360;-74
2023/05/16 05:48:33;;;;;;;;;4.67;4.67;;;;;18.48;62.81;97955.78;4686277;29;104265;-74
2023/05/16 05:51:00;;;;;;;;;5.00;5.00;;;;;18.37;61.62;97960.38;4793755;28;103893;-74
2023/05/16 05:53:27;;;;;;;;;9.00;8.67;;;;;17.33;65.07;97968.41;4728596;29;102183;-75
2023/05/16 05:55:54;;;;;;;;;9.00;8.00;;;;;17.60;64.71;97952.81;4821669;29;101931;-72
2023/05/16 05:58:21;;;;;;;;;7.67;7.67;;;;;18.36;62.56;97966.97;4752283;28;109892;-74
2023/05/16 06:00:48;;;;;;;;;7.00;6.00;;;;;18.35;63.47;97964.50;4821559;29;102405;-74
2023/05/16 06:03:15;;;;;;;;;7.00;7.00;;;;;18.14;62.52;97967.13;4684553;28;102128;-74
2023/05/16 06:05:42;;;;;;;;;6.67;6.67;;;;;17.80;64.87;97968.53;4689474;29;102290;-74
2023/05/16 06:08:09;;;;;;;;;7.67;7.67;;;;;17.51;66.17;97965.28;4834097;29;104072;-74
2023/05/16 06:10:36;;;;;;;;;8.00;6.67;;;;;17.67;63.07;97972.53;4686554;29;102461;-74
2023/05/16 06:13:03;;;;;;;;;1.33;0.00;;;;;17.52;64.92;97969.66;4689043;29;102216;-74
2023/05/16 06:15:30;;;;;;;;;7.00;7.00;;;;;17.99;63.69;97968.94;4690166;28;102089;-74
2023/05/16 06:17:58;;;;;;;;;10.00;9.00;;;;;17.54;64.96;97978.44;4783551;29;104243;-74
2023/05/16 06:20:25;;;;;;;;;8.00;7.67;;;;;17.21;64.20;97968.56;4821713;29;103745;-74
2023/05/16 06:22:52;;;;;;;;;10.00;10.00;;;;;16.60;67.33;97974.47;4686751;29;102248;-73
2023/05/16 06:25:19;;;;;;;;;11.33;11.33;;;;;16.61;66.50;97982.41;4681850;28;102385;-75
2023/05/16 06:27:46;;;;;;;;;10.00;9.33;;;;;16.82;70.65;97978.81;4693967;29;104090;-73
2023/05/16 06:30:13;;;;;;;;;12.33;12.33;;;;;16.99;66.27;97975.16;4833486;29;102469;-74
2023/05/16 06:32:40;;;;;;;;;15.33;13.00;;;;;16.95;66.39;97970.22;4684072;29;105520;-74
2023/05/16 06:35:08;;;;;;;;;13.00;12.00;;;;;17.50;62.85;97966.38;4764133;29;102565;-74
2023/05/16 06:37:35;;;;;;;;;14.67;12.67;;;;;17.26;64.08;97960.41;4683728;29;104174;-74
2023/05/16 06:40:02;;;;;;;;;11.00;10.00;;;;;17.64;63.57;97962.16;4760215;29;102102;-73
2023/05/16 06:42:29;;;;;;;;;11.67;10.67;;;;;17.79;63.44;97969.63;4773537;29;102152;-73
2023/05/16 06:44:56;;;;;;;;;7.00;7.00;;;;;18.38;61.00;97969.41;4819594;29;102397;-74
2023/05/16 06:47:23;;;;;;;;;17.00;15.00;;;;;18.94;63.18;97967.75;4760658;29;104223;-73
2023/05/16 06:49:50;;;;;;;;;11.00;8.67;;;;;19.02;60.46;97972.69;4680279;28;102233;-74
2023/05/16 06:52:17;;;;;;;;;7.33;7.33;;;;;19.40;58.98;97968.66;4687809;29;102256;-74
2023/05/16 06:54:44;;;;;;;;;8.67;8.67;;;;;19.77;56.43;97968.44;4833719;29;102202;-74
2023/05/16 06:57:12;;;;;;;;;6.33;6.33;;;;;19.83;54.92;97959.06;4688079;29;104460;-74
2023/05/16 06:59:39;;;;;;;;;6.67;6.67;;;;;20.06;55.52;97963.97;4833389;29;101986;-74
2023/05/16 07:02:06;;;;;;;;;4.00;4.00;;;;;20.10;53.59;97962.31;4832302;29;101929;-74
2023/05/16 07:04:35;;;;;;;;;11.00;11.00;;;;;19.21;56.26;97970.28;4686558;29;102527;-74
2023/05/16 07:07:03;;;;;;;;;15.00;15.00;;;;;19.51;57.47;97981.28;4687910;29;102919;-74
2023/05/16 07:09:30;;;;;;;;;11.33;11.00;;;;;18.82;59.78;97983.63;4832726;29;102900;-73
2023/05/16 07:11:57;;;;;;;;;12.33;9.33;;;;;19.17;57.34;97987.28;4681726;29;103311;-74
2023/05/16 07:14:24;;;;;;;;;8.00;7.67;;;;;19.47;59.41;97981.03;4782451;29;105132;-74
2023/05/16 07:16:51;;;;;;;;;4.67;4.67;;;;;19.81;57.61;97985.97;4679007;29;104047;-73
2023/05/16 07:19:18;;;;;;;;;7.00;6.67;;;;;19.45;58.27;97982.41;4834485;29;102186;-73
2023/05/16 07:21:45;;;;;;;;;8.67;8.33;;;;;19.52;56.69;97981.03;4814736;29;102448;-74
2023/05/16 07:24:12;;;;;;;;;6.67;6.00;;;;;19.43;57.63;97985.41;4688924;29;102373;-73
2023/05/16 07:26:39;;;;;;;;;5.67;5.67;;;;;19.06;58.07;97984.75;4600871;28;104162;-74
2023/05/16 07:29:06;;;;;;;;;9.00;7.33;;;;;19.11;59.19;97991.09;4783819;28;104507;-74
2023/05/16 07:31:33;;;;;;;;;8.00;7.00;;;;;19.00;57.78;97991.34;4716563;29;110690;-74
2023/05/16 07:34:00;;;;;;;;;7.33;6.00;;;;;19.12;57.42;97987.25;4765723;29;102278;-74
2023/05/16 07:36:27;;;;;;;;;5.00;5.00;;;;;19.56;56.45;98001.31;4688955;29;104085;-74
2023/05/16 07:38:54;;;;;;;;;6.00;6.00;;;;;19.80;57.22;97998.88;4833962;29;102436;-74
2023/05/16 07:41:21;;;;;;;;;6.00;5.67;;;;;19.58;56.96;98010.13;4684507;29;102325;-74
2023/05/16 07:43:48;;;;;;;;;8.00;7.00;;;;;19.32;58.41;98002.91;4823971;29;102565;-74
2023/05/16 07:46:15;;;;;;;;;7.33;6.33;;;;;19.28;57.68;98011.94;4767015;29;104034;-74
2023/05/16 07:48:42;;;;;;;;;10.00;10.00;;;;;18.75;59.36;98011.25;4684305;29;102051;-74
2023/05/16 07:51:09;;;;;;;;;10.00;10.00;;;;;18.61;57.18;98018.31;4684736;29;102307;-73
2023/05/16 07:53:36;;;;;;;;;11.67;11.00;;;;;18.63;58.02;98036.13;4834108;29;102377;-74
2023/05/16 07:56:04;;;;;;;;;6.00;6.00;;;;;19.00;59.40;98035.97;4687430;28;104072;-73
2023/05/16 07:58:34;;;;;;;;;10.67;10.33;;;;;19.03;59.66;98042.84;4682973;29;102311;-73
2023/05/16 08:01:01;;;;;;;;;11.33;11.33;;;;;18.53;58.97;98043.47;4831550;29;102217;-74
2023/05/16 08:03:29;;;;;;;;;17.00;16.67;;;;;17.91;59.25;98054.22;4691084;29;102518;-74
2023/05/16 08:05:56;;;;;;;;;9.33;8.67;;;;;18.33;62.23;98055.06;4829767;29;103995;-74
2023/05/16 08:08:23;;;;;;;;;7.00;6.67;;;;;18.61;59.35;98060.19;4829385;29;102499;-73
2023/05/16 08:10:50;;;;;;;;;5.00;5.00;;;;;19.05;56.94;98057.09;4683714;29;102331;-74
2023/05/16 08:13:17;;;;;;;;;13.00;12.67;;;;;18.46;60.35;98049.13;4832836;29;102362;-74
2023/05/16 08:15:45;;;;;;;;;11.67;9.67;;;;;18.48;57.76;98046.97;4802402;29;104242;-74
2023/05/16 08:18:14;;;;;;;;;11.33;10.67;;;;;18.71;60.32;98049.31;4733269;29;102174;-74
2023/05/16 08:20:42;;;;;;;;;15.00;14.00;;;;;18.42;62.00;98053.47;4832047;29;102194;-74
2023/05/16 08:23:09;;;;;;;;;15.00;14.67;;;;;18.42;60.72;98050.75;4741989;29;102341;-75
2023/05/16 08:25:36;;;;;;;;;10.33;10.00;;;;;18.69;60.70;98047.91;4783391;29;105199;-74
2023/05/16 08:28:03;;;;;;;;;12.33;12.00;;;;;18.87;63.29;98043.88;4831340;29;101952;-74
2023/05/16 08:30:31;;;;;;;;;12.33;12.00;;;;;18.86;59.63;98045.81;4681246;29;102326;-74
2023/05/16 08:32:58;;;;;;;;;13.33;13.00;;;;;18.78;54.73;98038.09;4829149;29;102324;-74
2023/05/16 08:35:25;;;;;;;;;16.25;16.25;;;;;18.56;56.84;98049.22;4833257;29;104094;-74
2023/05/16 08:37:52;;;;;;;;;16.25;14.25;;;;;18.48;57.38;98052.44;4686714;29;102172;-74
2023/05/16 08:40:21;;;;;;;;;12.67;12.67;;;;;18.80;60.01;98059.75;4832470;29;102222;-74
2023/05/16 08:42:48;;;;;;;;;15.25;15.00;;;;;18.66;56.55;98059.41;4833316;29;102265;-74
2023/05/16 08:45:18;;;;;;;;;11.67;10.00;;;;;19.13;59.13;98057.44;4685796;29;104188;-74
2023/05/16 08:47:48;;;;;;;;;9.00;8.33;;;;;19.57;58.97;98046.88;4833096;29;102171;-75
2023/05/16 08:50:16;;;;;;;;;8.00;8.00;;;;;19.78;56.36;98033.97;4680412;29;102423;-74
2023/05/16 08:52:44;;;;;;;;;13.00;12.00;;;;;19.65;56.56;98047.41;4832606;29;103202;-74
2023/05/16 08:55:13;;;;;;;;;8.00;8.00;;;;;19.94;55.43;98049.34;4681030;29;104170;-74
2023/05/16 08:57:41;;;;;;;;;8.67;8.67;;;;;20.01;54.82;98036.16;4831628;29;102596;-74
2023/05/16 09:00:12;;;;;;;;;10.00;9.00;;;;;20.15;56.13;98041.91;4833026;29;102219;-74
2023/05/16 09:02:40;;;;;;;;;9.67;9.67;;;;;20.29;53.91;98029.28;4680750;29;102313;-75
2023/05/16 09:05:10;;;;;;;;;9.33;7.67;;;;;20.44;55.05;98048.47;4833125;29;104064;-74
2023/05/16 09:07:37;;;;;;;;;9.00;8.00;;;;;20.63;54.27;98037.72;4688386;29;102059;-75
2023/05/16 09:10:07;;;;;;;;;6.00;6.00;;;;;20.57;55.19;98046.28;4831351;29;102294;-74
2023/05/16 09:12:34;;;;;;;;;8.67;8.33;;;;;20.78;53.90;98053.34;4733481;29;102284;-73
2023/05/16 09:15:03;;;;;;;;;9.00;9.00;;;;;20.96;59.32;98049.16;4801297;29;104189;-75
2023/05/16 09:17:36;;;;;;;;;9.00;9.00;;;;;20.91;52.56;98039.00;4833679;29;102066;-74
2023/05/16 09:20:10;;;;;;;;;7.33;7.33;;;;;20.65;54.58;98042.94;4689027;29;102336;-74
2023/05/16 09:22:38;;;;;;;;;5.33;4.33;;;;;20.73;53.95;98037.69;4834465;29;102142;-75
2023/05/16 09:25:06;;;;;;;;;10.00;10.00;;;;;20.77;55.75;98029.72;4832936;29;104161;-74
2023/05/16 09:27:52;;;;;;;;;9.67;9.67;;;;;20.54;55.06;98039.41;4673166;29;102377;-75
2023/05/16 09:30:28;;;;;;;;;13.00;12.00;;;;;20.46;52.85;98035.31;4836508;29;102321;-74
2023/05/16 09:32:55;;;;;;;;;8.00;7.67;;;;;20.89;52.04;98042.03;4740309;29;102616;-75
2023/05/16 09:35:22;;;;;;;;;10.00;9.00;;;;;20.72;50.76;98040.72;4798998;29;104031;-74
2023/05/16 09:38:16;;;;;;;;;12.67;12.00;;;;;20.51;54.29;98028.16;4830818;29;101951;-75
2023/05/16 09:40:44;;;;;;;;;13.00;10.33;;;;;20.54;55.67;98036.66;4687610;29;102463;-74
2023/05/16 09:43:15;;;;;;;;;8.00;8.00;;;;;20.56;52.48;98041.88;4834017;29;101995;-74
2023/05/16 09:45:47;;;;;;;;;9.33;8.33;;;;;20.75;52.87;98035.50;4833601;29;104041;-74
2023/05/16 09:48:16;;;;;;;;;9.00;9.00;;;;;20.46;52.24;98043.53;4679189;29;103515;-74
2023/05/16 09:50:52;;;;;;;;;12.00;12.00;;;;;20.44;56.27;98034.75;4831933;29;102363;-73
2023/05/16 09:53:28;;;;;;;;;11.67;10.67;;;;;20.21;51.63;98046.31;4689873;29;102138;-74
2023/05/16 09:56:09;;;;;;;;;11.67;10.00;;;;;20.45;53.18;98050.13;4833251;29;104064;-74
2023/05/16 09:58:38;;;;;;;;;8.33;8.00;;;;;20.62;49.90;98046.25;4835362;29;102886;-74
2023/05/16 10:01:06;;;;;;;;;11.67;11.00;;;;;20.46;47.33;98039.97;4686282;29;102038;-74
2023/05/16 10:03:35;;;;;;;;;9.00;8.00;;;;;20.77;49.93;98029.72;4834975;29;102103;-74
2023/05/16 10:06:07;;;;;;;;;8.67;8.67;;;;;20.74;48.79;98030.28;4833734;29;103271;-74
2023/05/16 10:08:36;;;;;;;;;11.33;10.67;;;;;20.69;48.87;98035.78;4688554;29;102583;-74
2023/05/16 10:11:05;;;;;;;;;14.00;14.00;;;;;20.26;50.23;98027.06;4833819;29;102430;-74
2023/05/16 10:13:34;;;;;;;;;13.00;13.00;;;;;20.09;50.13;98033.94;4830878;29;101976;-74
2023/05/16 10:16:11;;;;;;;;;16.00;16.00;;;;;19.86;52.44;98027.94;4832477;29;104158;-74
2023/05/16 10:18:39;;;;;;;;;15.00;14.00;;;;;19.83;49.41;98030.41;4826883;29;101907;-74
2023/05/16 10:21:13;;;;;;;;;12.00;11.33;;;;;19.86;52.46;98032.59;4715499;28;103436;-74
2023/05/16 10:23:42;;;;;;;;;11.33;10.00;;;;;20.30;53.12;98030.97;4807225;29;103536;-74
2023/05/16 10:26:12;;;;;;;;;7.00;7.00;;;;;20.66;52.19;98023.44;4832168;29;104161;-74
2023/05/16 10:28:40;;;;;;;;;6.00;6.00;;;;;20.98;53.51;98020.28;4779824;29;1527149;-74
2023/05/16 10:31:09;;;;;;;;;9.67;8.67;;;;;20.62;52.59;98013.31;4828041;29;102591;-74
2023/05/16 10:33:36;;;;;;;;;11.00;10.67;;;;;20.60;51.72;98018.25;4834450;29;102106;-74
2023/05/16 10:36:04;;;;;;;;;10.00;9.33;;;;;20.59;50.08;98011.91;4832528;29;104024;-74
2023/05/16 10:38:32;;;;;;;;;14.33;12.33;;;;;20.66;54.03;98017.13;4830310;29;102123;-74
2023/05/16 10:41:00;;;;;;;;;9.67;9.33;;;;;20.83;48.65;98007.44;4832281;29;102208;-74
2023/05/16 10:43:29;;;;;;;;;13.33;12.00;;;;;20.58;50.48;98012.22;4690712;29;102067;-74
2023/05/16 10:46:01;;;;;;;;;10.00;10.00;;;;;20.75;53.06;98001.72;4833605;29;104138;-74
2023/05/16 10:48:34;;;;;;;;;10.00;9.00;;;;;20.86;51.15;98008.78;4828708;29;101910;-74
2023/05/16 10:51:19;;;;;;;;;10.67;9.00;;;;;21.24;51.11;98021.00;4832733;29;101999;-74
2023/05/16 10:53:47;;;;;;;;;8.67;8.67;;;;;20.93;49.26;98021.16;4827427;29;103254;-74
2023/05/16 10:56:14;;;;;;;;;8.00;8.00;;;;;21.12;52.16;98015.78;4832412;29;103984;-74
2023/05/16 10:58:42;;;;;;;;;12.00;12.00;;;;;20.88;47.45;98018.41;4829564;29;102512;-74
2023/05/16 11:01:28;;;;;;;;;9.33;9.00;;;;;21.19;46.44;98008.09;4829057;29;102037;-74
2023/05/16 11:03:55;;;;;;;;;5.33;5.33;;;;;21.45;47.16;98002.44;4688518;29;102531;-74
2023/05/16 11:06:24;;;;;;;;;12.33;10.00;;;;;21.36;49.36;98008.56;4832284;29;104169;-74
2023/05/16 11:09:09;;;;;;;;;7.00;7.00;;;;;21.64;48.50;98004.22;4834030;29;102162;-74
2023/05/16 11:11:42;;;;;;;;;8.00;7.33;;;;;21.77;44.90;98006.31;4833657;29;102154;-74
2023/05/16 11:14:21;;;;;;;;;8.33;7.67;;;;;21.85;44.45;98009.56;4830562;29;102857;-75
2023/05/16 11:17:00;;;;;;;;;5.33;5.00;;;;;22.02;44.43;98010.00;4830113;29;104024;-74
2023/05/16 11:19:49;;;;;;;;;6.67;6.00;;;;;22.08;46.68;98004.16;4828321;29;102093;-73
2023/05/16 11:22:19;;;;;;;;;6.00;6.00;;;;;22.34;43.93;97993.69;4832204;29;102256;-74
2023/05/16 11:25:04;;;;;;;;;11.00;9.00;;;;;21.89;46.47;98003.19;4689318;29;102737;-74
2023/05/16 11:27:33;;;;;;;;;12.00;11.00;;;;;21.66;46.59;97995.66;4832138;29;104061;-73
2023/05/16 11:30:12;;;;;;;;;11.67;11.67;;;;;21.54;49.06;97986.97;4828914;29;102199;-73